Time;durP1;ratioP1;P1;durP2;ratioP2;P2;SDS_P1;SDS_P2;PMS_P1;PMS_P2;Temp;Humidity;BMP_temperature;BMP_pressure;BME280_temperature;BME280_humidity;BME280_pressure;Samples;Min_cycle;Max_cycle;Signal;HPM_P1;HPM_P2
2023/08/09 00:00:50;;;;;;;8.80;1.88;;;;;;;;;;2055553;28;20019;-83
2023/08/09 00:02:09;;;;;;;7.07;1.55;;;;;;;;;;2056097;29;20019;-85
2023/08/09 00:03:29;;;;;;;7.03;1.70;;;;;;;;;;2053559;28;20035;-86
2023/08/09 00:04:48;;;;;;;7.25;1.42;;;;;;;;;;2053207;28;20047;-84
2023/08/09 00:06:07;;;;;;;6.57;1.60;;;;;;;;;;2040376;29;20036;-84
2023/08/09 00:07:26;;;;;;;12.98;1.90;;;;;;;;;;2047093;28;20035;-85
2023/08/09 00:08:45;;;;;;;11.70;2.33;;;;;;;;;;2039660;28;20039;-83
2023/08/09 00:10:04;;;;;;;7.13;1.75;;;;;;;;;;2049124;28;20066;-81
2023/08/09 00:11:23;;;;;;;8.45;1.83;;;;;;;;;;2039862;28;20508;-83
2023/08/09 00:12:42;;;;;;;8.82;1.90;;;;;;;;;;2044994;28;20031;-83
2023/08/09 00:14:01;;;;;;;3.78;1.98;;;;;;;;;;2039004;28;20464;-83
2023/08/09 00:15:20;;;;;;;8.30;2.08;;;;;;;;;;2045023;28;20075;-82
2023/08/09 00:16:40;;;;;;;8.98;1.98;;;;;;;;;;2049769;28;20427;-84
2023/08/09 00:17:59;;;;;;;4.25;1.33;;;;;;;;;;2052940;28;20488;-82
2023/08/09 00:19:18;;;;;;;8.00;1.70;;;;;;;;;;2042319;28;20544;-84
2023/08/09 00:20:37;;;;;;;6.85;1.98;;;;;;;;;;2043145;28;20111;-84
2023/08/09 00:21:57;;;;;;;5.22;2.00;;;;;;;;;;2043656;28;20035;-82
2023/08/09 00:23:16;;;;;;;6.55;1.30;;;;;;;;;;2048401;28;20020;-83
2023/08/09 00:24:35;;;;;;;5.47;1.25;;;;;;;;;;2049917;28;20488;-83
2023/08/09 00:25:57;;;;;;;5.00;1.75;;;;;;;;;;2041077;28;20019;-84
2023/08/09 00:27:18;;;;;;;3.88;1.38;;;;;;;;;;2051400;28;20036;-84
2023/08/09 00:28:37;;;;;;;7.10;2.00;;;;;;;;;;2042850;28;20444;-82
2023/08/09 00:29:56;;;;;;;4.00;1.45;;;;;;;;;;2046425;28;20059;-81
2023/08/09 00:31:15;;;;;;;3.95;1.50;;;;;;;;;;2044758;28;20488;-85
2023/08/09 00:32:34;;;;;;;6.40;1.88;;;;;;;;;;2041120;28;20091;-84
2023/08/09 00:33:53;;;;;;;5.88;1.75;;;;;;;;;;2048610;28;20454;-85
2023/08/09 00:35:15;;;;;;;8.20;1.67;;;;;;;;;;2051158;28;20051;-83
2023/08/09 00:36:34;;;;;;;5.18;1.40;;;;;;;;;;2053395;28;20055;-84
2023/08/09 00:37:53;;;;;;;7.00;2.13;;;;;;;;;;2052774;28;20031;-83
2023/08/09 00:39:12;;;;;;;7.47;1.60;;;;;;;;;;2050741;28;20024;-83
2023/08/09 00:40:36;;;;;;;6.07;2.33;;;;;;;;;;2054139;28;20486;-83
2023/08/09 00:41:55;;;;;;;3.83;1.15;;;;;;;;;;2045813;28;20040;-83
2023/08/09 00:43:13;;;;;;;6.60;1.52;;;;;;;;;;2047902;28;20030;-83
2023/08/09 00:44:32;;;;;;;8.85;1.75;;;;;;;;;;2050453;28;20019;-82
2023/08/09 00:45:51;;;;;;;7.25;1.52;;;;;;;;;;2048525;28;20023;-83
2023/08/09 00:47:10;;;;;;;7.70;1.70;;;;;;;;;;2051423;28;20023;-83
2023/08/09 00:48:31;;;;;;;7.68;1.50;;;;;;;;;;2044283;28;20544;-83
2023/08/09 00:49:50;;;;;;;5.00;1.33;;;;;;;;;;2037275;28;20036;-83
2023/08/09 00:51:10;;;;;;;5.18;1.58;;;;;;;;;;2047442;28;20023;-84
2023/08/09 00:52:29;;;;;;;3.97;1.40;;;;;;;;;;2049412;28;20027;-84
2023/08/09 00:53:49;;;;;;;5.57;1.92;;;;;;;;;;2044708;28;20653;-82
2023/08/09 00:55:09;;;;;;;6.65;1.88;;;;;;;;;;2076750;28;20518;-81
2023/08/09 00:56:29;;;;;;;6.50;1.50;;;;;;;;;;2059181;28;20020;-82
2023/08/09 00:57:47;;;;;;;5.32;1.40;;;;;;;;;;2038833;28;20115;-81
2023/08/09 00:59:06;;;;;;;7.63;2.08;;;;;;;;;;2046452;29;20114;-84
2023/08/09 01:00:26;;;;;;;7.43;1.42;;;;;;;;;;2050910;28;20023;-81
2023/08/09 01:01:45;;;;;;;4.70;1.25;;;;;;;;;;2055967;28;20066;-83
2023/08/09 01:03:04;;;;;;;6.13;2.03;;;;;;;;;;2048034;28;20035;-83
2023/08/09 01:04:23;;;;;;;5.50;1.83;;;;;;;;;;2043333;28;20036;-83
2023/08/09 01:06:02;;;;;;;6.13;1.60;;;;;;;;;;2038306;28;20489;-83
2023/08/09 01:07:42;;;;;;;3.42;1.25;;;;;;;;;;2044846;28;20043;-82
2023/08/09 01:09:04;;;;;;;3.88;1.38;;;;;;;;;;2052087;28;20487;-84
2023/08/09 01:10:29;;;;;;;9.57;1.88;;;;;;;;;;2049985;28;20036;-84
2023/08/09 01:12:00;;;;;;;5.88;1.58;;;;;;;;;;2047146;28;20027;-84
2023/08/09 01:13:21;;;;;;;6.05;1.67;;;;;;;;;;2049812;28;20420;-83
2023/08/09 01:14:45;;;;;;;7.32;1.42;;;;;;;;;;2045441;28;20023;-85
2023/08/09 01:16:05;;;;;;;5.90;1.60;;;;;;;;;;2049092;28;20031;-85
2023/08/09 01:17:26;;;;;;;5.18;1.23;;;;;;;;;;2052354;28;20032;-83
2023/08/09 01:18:45;;;;;;;7.13;1.73;;;;;;;;;;2041312;28;20043;-84
2023/08/09 01:20:10;;;;;;;6.07;1.70;;;;;;;;;;2039197;28;20168;-82
2023/08/09 01:21:32;;;;;;;6.78;1.48;;;;;;;;;;2052720;28;20031;-85
2023/08/09 01:22:58;;;;;;;5.50;1.60;;;;;;;;;;2049242;28;20514;-83
2023/08/09 01:24:17;;;;;;;15.00;1.30;;;;;;;;;;2050346;28;20031;-84
2023/08/09 01:25:37;;;;;;;5.32;1.17;;;;;;;;;;2038011;28;20028;-84
2023/08/09 01:26:55;;;;;;;3.60;1.60;;;;;;;;;;2047231;28;20385;-83
2023/08/09 01:28:16;;;;;;;8.35;1.88;;;;;;;;;;2049788;28;20485;-85
2023/08/09 01:29:36;;;;;;;6.60;1.45;;;;;;;;;;2049287;29;20106;-84
2023/08/09 01:30:55;;;;;;;2.88;1.20;;;;;;;;;;2035391;28;20422;-85
2023/08/09 01:32:13;;;;;;;4.25;1.63;;;;;;;;;;2044973;28;20446;-85
2023/08/09 01:33:32;;;;;;;6.07;1.52;;;;;;;;;;2043660;28;20031;-85
2023/08/09 01:34:52;;;;;;;3.70;1.40;;;;;;;;;;2051001;28;20120;-85
2023/08/09 01:36:26;;;;;;;9.23;2.17;;;;;;;;;;2043723;28;20028;-85
2023/08/09 01:38:08;;;;;;;7.13;2.13;;;;;;;;;;2050181;28;20027;-84
2023/08/09 01:39:29;;;;;;;8.88;1.60;;;;;;;;;;2040537;29;20429;-81
2023/08/09 01:40:49;;;;;;;6.82;1.90;;;;;;;;;;2048379;28;20075;-84
2023/08/09 01:42:09;;;;;;;7.18;1.60;;;;;;;;;;2082436;28;20498;-83
2023/08/09 01:43:30;;;;;;;6.30;1.70;;;;;;;;;;2064554;28;20114;-82
2023/08/09 01:44:49;;;;;;;5.53;1.40;;;;;;;;;;2042289;28;20417;-83
2023/08/09 01:46:09;;;;;;;4.20;1.67;;;;;;;;;;2041014;28;20078;-85
2023/08/09 01:47:28;;;;;;;6.78;1.60;;;;;;;;;;2040169;28;20029;-83
2023/08/09 01:48:48;;;;;;;10.60;1.77;;;;;;;;;;2044308;28;20032;-84
2023/08/09 01:50:15;;;;;;;5.60;1.70;;;;;;;;;;2040688;28;20099;-83
2023/08/09 01:51:35;;;;;;;8.93;2.25;;;;;;;;;;2045511;28;20094;-84
2023/08/09 01:52:58;;;;;;;3.70;1.50;;;;;;;;;;2049530;28;20040;-84
2023/08/09 01:54:17;;;;;;;7.50;1.75;;;;;;;;;;2047020;28;20070;-83
2023/08/09 01:55:38;;;;;;;5.97;2.10;;;;;;;;;;2046463;29;20035;-83
2023/08/09 01:56:57;;;;;;;3.85;1.73;;;;;;;;;;2032243;28;20032;-84
2023/08/09 01:58:16;;;;;;;8.25;1.52;;;;;;;;;;2044208;28;20062;-84
2023/08/09 01:59:35;;;;;;;7.00;2.05;;;;;;;;;;2042512;28;20346;-83
2023/08/09 02:00:54;;;;;;;5.47;2.10;;;;;;;;;;2038325;28;20505;-83
2023/08/09 02:02:13;;;;;;;5.22;1.90;;;;;;;;;;2046047;28;20057;-84
2023/08/09 02:03:32;;;;;;;8.05;1.48;;;;;;;;;;2055456;28;20075;-82
2023/08/09 02:04:51;;;;;;;8.32;2.28;;;;;;;;;;2038815;28;20043;-82
2023/08/09 02:06:10;;;;;;;7.78;1.60;;;;;;;;;;2044386;28;20070;-84
2023/08/09 02:07:28;;;;;;;6.57;1.58;;;;;;;;;;2045630;28;20039;-85
2023/08/09 02:08:47;;;;;;;6.53;1.67;;;;;;;;;;2037307;28;20458;-83
2023/08/09 02:10:07;;;;;;;3.53;1.40;;;;;;;;;;2047872;28;20074;-81
2023/08/09 02:11:26;;;;;;;4.65;1.55;;;;;;;;;;2041378;28;20032;-83
2023/08/09 02:12:48;;;;;;;5.45;1.45;;;;;;;;;;2047872;28;20039;-84
2023/08/09 02:14:09;;;;;;;6.38;1.52;;;;;;;;;;2040297;28;20404;-83
2023/08/09 02:15:28;;;;;;;4.63;1.60;;;;;;;;;;2045271;29;20024;-82
2023/08/09 02:16:48;;;;;;;5.80;1.80;;;;;;;;;;2047368;28;20027;-85
2023/08/09 02:18:07;;;;;;;6.05;1.73;;;;;;;;;;2047920;28;20031;-84
2023/08/09 02:19:26;;;;;;;5.65;1.73;;;;;;;;;;2047546;28;20438;-82
2023/08/09 02:20:45;;;;;;;3.75;1.60;;;;;;;;;;2050117;28;20511;-82
2023/08/09 02:22:03;;;;;;;5.25;1.58;;;;;;;;;;2040020;28;20099;-82
2023/08/09 02:23:22;;;;;;;5.20;1.50;;;;;;;;;;2046466;28;20035;-82
2023/08/09 02:24:41;;;;;;;6.82;1.98;;;;;;;;;;2047041;28;20027;-84
2023/08/09 02:26:00;;;;;;;8.57;1.70;;;;;;;;;;2043726;28;20028;-81
2023/08/09 02:27:19;;;;;;;7.88;1.42;;;;;;;;;;2044890;28;20028;-82
2023/08/09 02:28:38;;;;;;;6.07;1.42;;;;;;;;;;2040817;28;20031;-82
2023/08/09 02:29:57;;;;;;;6.28;1.30;;;;;;;;;;2043042;28;20032;-82
2023/08/09 02:31:18;;;;;;;5.05;1.90;;;;;;;;;;2050225;28;20032;-79
2023/08/09 02:32:37;;;;;;;9.50;1.65;;;;;;;;;;2041363;28;20020;-82
2023/08/09 02:33:57;;;;;;;6.38;1.80;;;;;;;;;;2036778;28;20027;-83
2023/08/09 02:35:16;;;;;;;6.97;1.35;;;;;;;;;;2045853;28;20536;-83
2023/08/09 02:36:35;;;;;;;5.15;1.48;;;;;;;;;;2049325;28;20027;-81
2023/08/09 02:37:54;;;;;;;6.65;1.45;;;;;;;;;;2047014;28;20106;-82
2023/08/09 02:39:13;;;;;;;6.32;1.48;;;;;;;;;;2048230;28;20098;-82
2023/08/09 02:40:34;;;;;;;5.97;1.50;;;;;;;;;;2046549;28;20030;-82
2023/08/09 02:41:54;;;;;;;6.45;1.70;;;;;;;;;;2046577;28;20028;-82
2023/08/09 02:43:13;;;;;;;3.15;1.20;;;;;;;;;;2046502;28;20451;-82
2023/08/09 02:44:32;;;;;;;4.90;1.58;;;;;;;;;;2041866;28;20417;-82
2023/08/09 02:45:52;;;;;;;6.18;1.73;;;;;;;;;;2036325;28;20020;-82
2023/08/09 02:47:11;;;;;;;4.43;1.38;;;;;;;;;;2049514;28;20035;-83
2023/08/09 02:48:30;;;;;;;4.82;1.50;;;;;;;;;;2042835;28;20485;-82
2023/08/09 02:49:50;;;;;;;3.92;1.27;;;;;;;;;;2038486;28;20039;-81
2023/08/09 02:51:10;;;;;;;8.13;1.52;;;;;;;;;;2045695;28;20111;-83
2023/08/09 02:52:29;;;;;;;3.20;1.67;;;;;;;;;;2038219;28;20032;-84
2023/08/09 02:54:02;;;;;;;6.68;1.83;;;;;;;;;;2046901;28;20472;-82
2023/08/09 02:55:21;;;;;;;5.90;1.70;;;;;;;;;;2045145;28;20408;-82
2023/08/09 02:56:40;;;;;;;5.75;1.55;;;;;;;;;;2045315;28;20337;-83
2023/08/09 02:58:00;;;;;;;5.70;1.15;;;;;;;;;;2043383;28;20031;-82
2023/08/09 02:59:19;;;;;;;6.30;1.50;;;;;;;;;;2044341;28;20107;-83
2023/08/09 03:00:38;;;;;;;4.47;1.20;;;;;;;;;;2041185;28;20047;-84
2023/08/09 03:01:56;;;;;;;6.30;1.52;;;;;;;;;;2047159;28;20095;-83
2023/08/09 03:03:15;;;;;;;5.57;1.55;;;;;;;;;;2042629;28;20039;-82
2023/08/09 03:04:34;;;;;;;3.28;1.20;;;;;;;;;;2039271;28;20107;-81
2023/08/09 03:05:53;;;;;;;3.92;1.52;;;;;;;;;;2045437;28;20473;-82
2023/08/09 03:07:12;;;;;;;3.72;1.15;;;;;;;;;;2048370;28;20032;-83
2023/08/09 03:08:31;;;;;;;6.28;1.60;;;;;;;;;;2040387;28;20115;-84
2023/08/09 03:09:50;;;;;;;4.80;1.60;;;;;;;;;;2046755;28;20125;-84
2023/08/09 03:11:09;;;;;;;3.88;1.25;;;;;;;;;;2046222;28;20023;-86
2023/08/09 03:12:28;;;;;;;5.70;1.30;;;;;;;;;;2041914;28;20028;-82
2023/08/09 03:13:48;;;;;;;10.70;1.67;;;;;;;;;;2042894;28;20031;-83
2023/08/09 03:15:07;;;;;;;6.32;1.33;;;;;;;;;;2045375;28;20020;-84
2023/08/09 03:16:26;;;;;;;4.68;1.33;;;;;;;;;;2049942;28;20058;-85
2023/08/09 03:17:46;;;;;;;4.45;1.08;;;;;;;;;;2045377;28;20024;-83
2023/08/09 03:19:06;;;;;;;5.97;1.70;;;;;;;;;;2046525;28;20027;-84
2023/08/09 03:20:25;;;;;;;6.68;1.67;;;;;;;;;;2050472;28;20397;-83
2023/08/09 03:21:44;;;;;;;5.55;1.65;;;;;;;;;;2045442;28;20036;-84
2023/08/09 03:23:04;;;;;;;4.00;1.55;;;;;;;;;;2046337;28;20039;-85
2023/08/09 03:24:24;;;;;;;5.10;1.10;;;;;;;;;;2040411;28;20028;-85
2023/08/09 03:25:43;;;;;;;4.35;1.40;;;;;;;;;;2040960;28;20040;-84
2023/08/09 03:27:01;;;;;;;3.03;1.10;;;;;;;;;;2046103;28;20039;-84
2023/08/09 03:28:21;;;;;;;4.25;1.27;;;;;;;;;;2052559;28;20035;-84
2023/08/09 03:29:40;;;;;;;5.15;1.50;;;;;;;;;;2045314;28;20580;-81
2023/08/09 03:30:59;;;;;;;4.47;1.50;;;;;;;;;;2055850;28;20019;-83
2023/08/09 03:32:18;;;;;;;9.13;1.75;;;;;;;;;;2062509;28;20071;-82
2023/08/09 03:33:37;;;;;;;8.23;1.38;;;;;;;;;;2048913;28;20032;-85
2023/08/09 03:34:56;;;;;;;4.60;1.25;;;;;;;;;;2053620;28;20431;-83
2023/08/09 03:36:15;;;;;;;4.75;1.60;;;;;;;;;;2060380;28;20055;-84
2023/08/09 03:37:35;;;;;;;4.80;2.05;;;;;;;;;;2055385;28;20110;-81
2023/08/09 03:38:54;;;;;;;6.25;1.73;;;;;;;;;;2055971;28;20023;-82
2023/08/09 03:40:13;;;;;;;7.75;1.50;;;;;;;;;;2042708;29;20036;-83
2023/08/09 03:41:32;;;;;;;4.43;1.38;;;;;;;;;;2047634;28;20027;-84
2023/08/09 03:42:51;;;;;;;5.28;1.65;;;;;;;;;;2044809;28;20024;-81
2023/08/09 03:44:10;;;;;;;7.45;1.45;;;;;;;;;;2039083;28;20024;-84
2023/08/09 03:45:29;;;;;;;5.40;1.50;;;;;;;;;;2038038;28;20023;-84
2023/08/09 03:46:48;;;;;;;6.50;1.52;;;;;;;;;;2036910;28;20032;-85
2023/08/09 03:48:07;;;;;;;4.82;1.63;;;;;;;;;;2048142;28;20043;-86
2023/08/09 03:49:26;;;;;;;10.45;1.88;;;;;;;;;;2042330;28;20028;-86
2023/08/09 03:50:45;;;;;;;6.43;1.35;;;;;;;;;;2045159;29;20110;-85
2023/08/09 03:52:06;;;;;;;8.07;1.85;;;;;;;;;;2040640;28;20035;-84
2023/08/09 03:53:25;;;;;;;6.45;1.70;;;;;;;;;;2043978;28;20031;-83
2023/08/09 03:54:44;;;;;;;7.95;2.30;;;;;;;;;;2045252;28;20114;-82
2023/08/09 03:56:03;;;;;;;6.70;1.25;;;;;;;;;;2039078;28;20400;-83
2023/08/09 03:57:22;;;;;;;10.10;2.50;;;;;;;;;;2043424;28;20051;-84
2023/08/09 03:58:41;;;;;;;5.45;1.85;;;;;;;;;;2044948;28;20031;-80
2023/08/09 04:00:02;;;;;;;6.10;1.33;;;;;;;;;;2040664;28;20020;-84
2023/08/09 04:01:21;;;;;;;10.48;2.05;;;;;;;;;;2043588;29;20054;-83
2023/08/09 04:02:40;;;;;;;6.03;1.75;;;;;;;;;;2047993;29;20031;-84
2023/08/09 04:03:59;;;;;;;2.72;1.67;;;;;;;;;;2044149;28;20118;-83
2023/08/09 04:05:19;;;;;;;6.93;1.40;;;;;;;;;;2046797;28;20591;-82
2023/08/09 04:06:38;;;;;;;7.00;1.70;;;;;;;;;;2050224;28;20032;-83
2023/08/09 04:07:58;;;;;;;7.60;2.40;;;;;;;;;;2043783;28;20024;-82
2023/08/09 04:09:17;;;;;;;7.78;1.77;;;;;;;;;;2044745;28;20020;-83
2023/08/09 04:10:36;;;;;;;5.55;1.60;;;;;;;;;;2047357;28;20054;-84
2023/08/09 04:11:59;;;;;;;7.90;1.60;;;;;;;;;;2039351;28;20023;-83
2023/08/09 04:13:19;;;;;;;9.10;1.60;;;;;;;;;;2043759;29;20134;-82
2023/08/09 04:14:38;;;;;;;5.43;1.52;;;;;;;;;;2048658;29;20027;-83
2023/08/09 04:15:57;;;;;;;5.35;1.60;;;;;;;;;;2046392;28;20054;-84
2023/08/09 04:17:15;;;;;;;7.22;1.30;;;;;;;;;;2052643;28;20028;-86
2023/08/09 04:18:34;;;;;;;9.60;1.70;;;;;;;;;;2050036;28;20578;-82
2023/08/09 04:19:53;;;;;;;6.00;1.33;;;;;;;;;;2048296;29;20031;-83
2023/08/09 04:21:12;;;;;;;8.63;1.33;;;;;;;;;;2043739;28;20029;-85
2023/08/09 04:22:31;;;;;;;5.38;1.65;;;;;;;;;;2037236;28;20024;-83
2023/08/09 04:23:50;;;;;;;6.05;1.60;;;;;;;;;;2045515;28;20028;-84
2023/08/09 04:25:10;;;;;;;5.47;1.55;;;;;;;;;;2043826;28;20400;-84
2023/08/09 04:26:29;;;;;;;7.57;2.25;;;;;;;;;;2049013;28;20035;-86
2023/08/09 04:27:48;;;;;;;6.30;1.70;;;;;;;;;;2048033;28;20031;-84
2023/08/09 04:29:11;;;;;;;5.65;1.65;;;;;;;;;;2046756;28;20069;-86
2023/08/09 04:30:29;;;;;;;9.25;1.88;;;;;;;;;;2047889;28;20502;-85
2023/08/09 04:31:48;;;;;;;8.15;1.70;;;;;;;;;;2048761;28;20114;-83
2023/08/09 04:33:07;;;;;;;5.15;1.63;;;;;;;;;;2040609;28;20115;-85
2023/08/09 04:34:26;;;;;;;4.78;1.05;;;;;;;;;;2044200;28;20051;-84
2023/08/09 04:35:45;;;;;;;7.10;1.92;;;;;;;;;;2052746;28;20027;-83
2023/08/09 04:37:05;;;;;;;6.03;1.23;;;;;;;;;;2038875;29;20417;-85
2023/08/09 04:38:23;;;;;;;3.13;1.38;;;;;;;;;;2045071;28;20024;-80
2023/08/09 04:39:43;;;;;;;7.47;1.95;;;;;;;;;;2045047;28;20031;-79
2023/08/09 04:41:03;;;;;;;5.95;1.25;;;;;;;;;;2046476;28;20031;-79
2023/08/09 04:42:22;;;;;;;4.85;1.42;;;;;;;;;;2041062;28;20028;-78
2023/08/09 04:43:43;;;;;;;4.72;1.33;;;;;;;;;;2047540;28;20481;-78
2023/08/09 04:45:03;;;;;;;12.88;2.63;;;;;;;;;;2048134;28;20039;-79
2023/08/09 04:46:22;;;;;;;5.05;1.50;;;;;;;;;;2037500;28;20040;-79
2023/08/09 04:47:41;;;;;;;5.95;1.90;;;;;;;;;;2043256;28;20396;-79
2023/08/09 04:49:00;;;;;;;5.35;1.20;;;;;;;;;;2040502;28;20143;-79
2023/08/09 04:50:20;;;;;;;5.78;1.42;;;;;;;;;;2034021;28;20043;-80
2023/08/09 04:51:40;;;;;;;5.65;1.30;;;;;;;;;;2045962;28;20040;-78
2023/08/09 04:53:00;;;;;;;4.95;1.55;;;;;;;;;;2050104;28;20032;-80
2023/08/09 04:54:20;;;;;;;8.55;1.85;;;;;;;;;;2055406;28;20055;-79
2023/08/09 04:55:40;;;;;;;6.57;1.80;;;;;;;;;;2038598;28;20452;-79
2023/08/09 04:56:59;;;;;;;6.18;2.00;;;;;;;;;;2042314;28;20122;-81
2023/08/09 04:58:18;;;;;;;4.85;1.90;;;;;;;;;;2036709;28;20024;-79
2023/08/09 04:59:37;;;;;;;6.00;1.83;;;;;;;;;;2034973;28;20055;-81
2023/08/09 05:00:59;;;;;;;6.45;1.55;;;;;;;;;;2044983;28;20027;-80
2023/08/09 05:02:18;;;;;;;6.00;1.73;;;;;;;;;;2046638;28;20063;-79
2023/08/09 05:03:37;;;;;;;4.63;1.67;;;;;;;;;;2048081;28;20484;-80
2023/08/09 05:04:56;;;;;;;6.35;1.65;;;;;;;;;;2050078;28;20032;-79
2023/08/09 05:06:15;;;;;;;5.00;1.60;;;;;;;;;;2043481;28;20047;-80
2023/08/09 05:07:34;;;;;;;5.18;1.60;;;;;;;;;;2037751;28;20067;-81
2023/08/09 05:08:53;;;;;;;8.88;2.10;;;;;;;;;;2044095;28;20027;-79
2023/08/09 05:10:12;;;;;;;8.68;1.85;;;;;;;;;;2046160;28;20477;-80
2023/08/09 05:11:31;;;;;;;4.82;1.85;;;;;;;;;;2046224;29;20112;-79
2023/08/09 05:12:50;;;;;;;5.68;1.60;;;;;;;;;;2046078;28;20027;-79
2023/08/09 05:14:09;;;;;;;6.25;1.40;;;;;;;;;;2045937;28;20023;-79
2023/08/09 05:15:28;;;;;;;8.93;1.80;;;;;;;;;;2046776;28;20435;-82
2023/08/09 05:16:47;;;;;;;4.20;1.50;;;;;;;;;;2046098;28;20024;-77
2023/08/09 05:18:06;;;;;;;7.03;1.60;;;;;;;;;;2044252;28;20031;-79
2023/08/09 05:19:25;;;;;;;5.43;1.35;;;;;;;;;;2047781;28;20492;-81
2023/08/09 05:20:45;;;;;;;7.68;1.75;;;;;;;;;;2045028;28;20031;-81
2023/08/09 05:22:04;;;;;;;8.60;1.88;;;;;;;;;;2040419;28;20036;-82
2023/08/09 05:23:23;;;;;;;12.80;2.08;;;;;;;;;;2044852;28;20035;-80
2023/08/09 05:24:43;;;;;;;4.00;1.30;;;;;;;;;;2038453;28;20024;-80
2023/08/09 05:26:02;;;;;;;7.00;1.95;;;;;;;;;;2045841;28;20027;-79
2023/08/09 05:27:21;;;;;;;4.72;1.55;;;;;;;;;;2039701;28;20027;-78
2023/08/09 05:28:41;;;;;;;10.30;1.98;;;;;;;;;;2048216;28;20070;-79
2023/08/09 05:30:00;;;;;;;8.38;2.17;;;;;;;;;;2047857;28;20031;-80
2023/08/09 05:31:20;;;;;;;6.07;1.60;;;;;;;;;;2050133;28;20036;-80
2023/08/09 05:32:39;;;;;;;9.98;1.67;;;;;;;;;;2049095;28;20039;-80
2023/08/09 05:33:58;;;;;;;12.73;2.25;;;;;;;;;;2041643;28;20432;-80
2023/08/09 05:35:18;;;;;;;5.53;1.83;;;;;;;;;;2045302;28;20032;-80
2023/08/09 05:36:37;;;;;;;5.78;1.75;;;;;;;;;;2047908;28;20027;-78
2023/08/09 05:37:56;;;;;;;5.97;1.75;;;;;;;;;;2043015;28;20032;-78
2023/08/09 05:39:19;;;;;;;6.53;1.85;;;;;;;;;;2034483;28;20508;-78
2023/08/09 05:40:38;;;;;;;10.85;2.10;;;;;;;;;;2047932;28;20035;-81
2023/08/09 05:41:57;;;;;;;8.25;1.95;;;;;;;;;;2046544;28;20480;-80
2023/08/09 05:43:17;;;;;;;4.32;1.65;;;;;;;;;;2049026;28;20039;-80
2023/08/09 05:44:38;;;;;;;7.57;2.97;;;;;;;;;;2047353;28;20027;-80
2023/08/09 05:45:58;;;;;;;5.57;1.75;;;;;;;;;;2041259;28;20032;-79
2023/08/09 05:47:17;;;;;;;5.55;1.80;;;;;;;;;;2039193;28;20120;-79
2023/08/09 05:48:39;;;;;;;8.75;2.00;;;;;;;;;;2038380;28;20032;-80
2023/08/09 05:49:58;;;;;;;6.85;2.05;;;;;;;;;;2038575;28;20432;-80
2023/08/09 05:51:17;;;;;;;7.32;1.80;;;;;;;;;;2045064;28;20094;-81
2023/08/09 05:52:37;;;;;;;11.05;1.60;;;;;;;;;;2051837;28;20045;-79
2023/08/09 05:53:57;;;;;;;7.25;1.65;;;;;;;;;;2046800;28;20430;-81
2023/08/09 05:55:19;;;;;;;7.13;2.15;;;;;;;;;;2039978;28;20481;-80
2023/08/09 05:56:38;;;;;;;5.55;1.67;;;;;;;;;;2040834;28;20028;-81
2023/08/09 05:57:59;;;;;;;5.53;1.52;;;;;;;;;;2042666;28;20043;-80
2023/08/09 05:59:17;;;;;;;8.38;1.77;;;;;;;;;;2046625;28;20019;-80
2023/08/09 06:00:37;;;;;;;4.45;1.42;;;;;;;;;;2047796;28;20031;-80
2023/08/09 06:01:56;;;;;;;6.88;1.60;;;;;;;;;;2039768;28;20019;-79
2023/08/09 06:03:15;;;;;;;5.95;1.80;;;;;;;;;;2053628;28;20058;-80
2023/08/09 06:04:34;;;;;;;6.70;1.75;;;;;;;;;;2052780;28;20576;-80
2023/08/09 06:05:53;;;;;;;5.20;1.42;;;;;;;;;;2047769;28;20031;-81
2023/08/09 06:07:41;;;;;;;6.90;1.73;;;;;;;;;;2049451;29;20019;-80
2023/08/09 06:09:05;;;;;;;7.45;1.98;;;;;;;;;;2017851;28;20033;-79
2023/08/09 06:10:25;;;;;;;5.10;1.55;;;;;;;;;;2023533;28;20037;-78
2023/08/09 06:11:50;;;;;;;7.60;1.17;;;;;;;;;;2038349;29;20036;-79
2023/08/09 06:13:10;;;;;;;4.85;1.80;;;;;;;;;;2079560;28;20025;-77
2023/08/09 06:14:48;;;;;;;6.97;1.83;;;;;;;;;;2055683;28;20480;-79
2023/08/09 06:16:08;;;;;;;4.97;1.45;;;;;;;;;;2048979;28;20060;-79
2023/08/09 06:17:27;;;;;;;4.47;1.92;;;;;;;;;;2047399;28;20613;-80
2023/08/09 06:18:46;;;;;;;4.28;1.80;;;;;;;;;;2047827;28;20035;-79
2023/08/09 06:20:05;;;;;;;9.90;2.30;;;;;;;;;;2048380;28;20134;-79
2023/08/09 06:21:25;;;;;;;9.23;2.10;;;;;;;;;;2041003;28;20028;-79
2023/08/09 06:22:44;;;;;;;3.63;1.50;;;;;;;;;;2076485;28;20030;-79
2023/08/09 06:24:04;;;;;;;6.22;1.90;;;;;;;;;;2061221;28;20035;-80
2023/08/09 06:25:24;;;;;;;2.67;1.60;;;;;;;;;;2047240;28;20159;-79
2023/08/09 06:26:43;;;;;;;4.18;1.33;;;;;;;;;;2048900;28;20091;-77
2023/08/09 06:28:03;;;;;;;5.65;1.85;;;;;;;;;;2047340;28;20024;-78
2023/08/09 06:29:22;;;;;;;4.00;1.63;;;;;;;;;;2038585;28;20027;-78
2023/08/09 06:30:42;;;;;;;5.55;2.08;;;;;;;;;;2043607;28;20028;-77
2023/08/09 06:32:01;;;;;;;5.80;1.80;;;;;;;;;;2048248;28;20024;-78
2023/08/09 06:33:22;;;;;;;6.68;1.50;;;;;;;;;;2050039;28;20035;-78
2023/08/09 06:34:41;;;;;;;6.10;1.73;;;;;;;;;;2040153;28;20036;-78
2023/08/09 06:35:59;;;;;;;11.15;1.98;;;;;;;;;;2044998;28;20039;-77
2023/08/09 06:37:18;;;;;;;5.60;1.73;;;;;;;;;;2047562;28;20122;-78
2023/08/09 06:38:37;;;;;;;3.83;1.40;;;;;;;;;;2040178;29;20023;-77
2023/08/09 06:39:57;;;;;;;3.20;1.20;;;;;;;;;;2042489;29;20019;-77
2023/08/09 06:41:16;;;;;;;4.15;1.33;;;;;;;;;;2046725;28;20023;-78
2023/08/09 06:42:34;;;;;;;6.75;2.45;;;;;;;;;;2047801;28;20534;-81
2023/08/09 06:43:54;;;;;;;5.35;1.48;;;;;;;;;;2039306;28;20028;-78
2023/08/09 06:45:14;;;;;;;5.05;1.38;;;;;;;;;;2044335;28;20027;-79
2023/08/09 06:46:33;;;;;;;4.93;1.25;;;;;;;;;;2052388;28;20028;-79
2023/08/09 06:47:52;;;;;;;2.88;1.40;;;;;;;;;;2045858;28;20070;-79
2023/08/09 06:49:11;;;;;;;5.43;1.30;;;;;;;;;;2049343;28;20027;-78
2023/08/09 06:50:31;;;;;;;3.88;1.60;;;;;;;;;;2053623;28;20067;-79
2023/08/09 06:51:50;;;;;;;5.00;1.42;;;;;;;;;;2049909;28;20063;-80
2023/08/09 06:53:09;;;;;;;3.17;1.20;;;;;;;;;;2053287;28;20019;-80
2023/08/09 06:54:28;;;;;;;4.97;1.42;;;;;;;;;;2050310;28;20156;-79
2023/08/09 06:55:47;;;;;;;3.60;1.23;;;;;;;;;;2053969;29;20076;-79
2023/08/09 06:57:06;;;;;;;3.95;1.05;;;;;;;;;;2055152;28;20027;-80
2023/08/09 06:58:25;;;;;;;6.50;1.55;;;;;;;;;;2048977;28;20027;-81
2023/08/09 06:59:44;;;;;;;4.63;1.30;;;;;;;;;;2058060;28;20031;-79
2023/08/09 07:01:03;;;;;;;3.80;1.08;;;;;;;;;;2047976;28;20036;-80
2023/08/09 07:02:22;;;;;;;3.03;1.00;;;;;;;;;;2046770;28;20035;-79
2023/08/09 07:03:41;;;;;;;3.05;1.25;;;;;;;;;;2050098;28;20031;-79
2023/08/09 07:05:08;;;;;;;6.30;1.20;;;;;;;;;;2047776;28;20031;-79
2023/08/09 07:06:28;;;;;;;4.63;1.23;;;;;;;;;;2050615;28;20040;-78
2023/08/09 07:07:48;;;;;;;3.83;1.15;;;;;;;;;;2050176;28;20035;-79
2023/08/09 07:09:07;;;;;;;5.53;1.88;;;;;;;;;;2047081;29;20051;-80
2023/08/09 07:10:26;;;;;;;2.80;1.30;;;;;;;;;;2040939;28;20037;-79
2023/08/09 07:11:48;;;;;;;5.15;1.42;;;;;;;;;;2045977;28;20035;-79
2023/08/09 07:13:07;;;;;;;5.95;1.63;;;;;;;;;;2047465;28;20035;-79
2023/08/09 07:14:26;;;;;;;3.17;1.15;;;;;;;;;;2040161;28;20031;-79
2023/08/09 07:15:46;;;;;;;3.80;1.33;;;;;;;;;;2036662;28;21999;-79
2023/08/09 07:17:05;;;;;;;4.70;1.15;;;;;;;;;;2048228;28;20478;-79
2023/08/09 07:18:25;;;;;;;2.35;0.82;;;;;;;;;;2049728;28;20039;-79
2023/08/09 07:19:44;;;;;;;4.50;1.23;;;;;;;;;;2047787;29;20027;-80
2023/08/09 07:21:03;;;;;;;3.67;1.00;;;;;;;;;;2046852;28;20118;-79
2023/08/09 07:22:22;;;;;;;6.10;1.00;;;;;;;;;;2048797;28;20059;-79
2023/08/09 07:23:41;;;;;;;5.43;0.98;;;;;;;;;;2041012;28;20028;-80
2023/08/09 07:25:00;;;;;;;3.25;1.02;;;;;;;;;;2044695;28;20027;-79
2023/08/09 07:26:19;;;;;;;2.75;1.30;;;;;;;;;;2039997;28;20161;-80
2023/08/09 07:27:42;;;;;;;5.45;1.27;;;;;;;;;;2046249;28;20524;-80
2023/08/09 07:29:03;;;;;;;2.88;1.05;;;;;;;;;;2048427;28;20024;-80
2023/08/09 07:30:22;;;;;;;1.90;0.77;;;;;;;;;;2055053;28;20118;-80
2023/08/09 07:31:41;;;;;;;4.15;1.20;;;;;;;;;;2048575;28;20032;-80
2023/08/09 07:33:00;;;;;;;1.83;1.05;;;;;;;;;;2058452;28;20039;-80
2023/08/09 07:34:19;;;;;;;3.78;1.00;;;;;;;;;;2054344;28;20047;-80
2023/08/09 07:35:38;;;;;;;1.63;0.98;;;;;;;;;;2054006;28;20047;-80
2023/08/09 07:36:58;;;;;;;2.72;1.05;;;;;;;;;;2050962;28;20027;-81
2023/08/09 07:38:17;;;;;;;3.22;0.77;;;;;;;;;;2048530;28;20028;-80
2023/08/09 07:39:36;;;;;;;2.85;0.90;;;;;;;;;;2041837;28;20028;-80
2023/08/09 07:40:54;;;;;;;2.72;1.27;;;;;;;;;;2050959;28;20031;-80
2023/08/09 07:42:13;;;;;;;1.58;0.60;;;;;;;;;;2040844;28;20694;-79
2023/08/09 07:43:33;;;;;;;2.70;0.80;;;;;;;;;;2037501;28;20487;-81
2023/08/09 07:44:52;;;;;;;3.78;1.00;;;;;;;;;;2044459;28;20531;-80
2023/08/09 07:46:11;;;;;;;2.80;0.77;;;;;;;;;;2042325;28;20162;-80
2023/08/09 07:47:30;;;;;;;2.08;1.10;;;;;;;;;;2044478;28;20051;-80
2023/08/09 07:48:51;;;;;;;2.42;1.00;;;;;;;;;;2047054;28;20035;-81
2023/08/09 07:50:11;;;;;;;2.25;0.90;;;;;;;;;;2047783;28;20447;-81
2023/08/09 07:51:30;;;;;;;2.03;1.00;;;;;;;;;;2043497;28;20099;-80
2023/08/09 07:52:52;;;;;;;1.85;0.85;;;;;;;;;;2044404;28;20027;-80
2023/08/09 07:54:12;;;;;;;2.35;1.30;;;;;;;;;;2049052;28;20019;-81
2023/08/09 07:55:31;;;;;;;2.55;0.70;;;;;;;;;;2038311;28;20020;-80
2023/08/09 07:56:50;;;;;;;1.92;1.10;;;;;;;;;;2044981;28;20020;-80
2023/08/09 07:58:10;;;;;;;4.40;0.63;;;;;;;;;;2036448;29;20596;-81
2023/08/09 07:59:29;;;;;;;1.70;0.90;;;;;;;;;;2045858;28;20508;-80